Vandenberg Air Force Base
KVBG : now visible

Airfield :











YOU CAN JOIN US ON...

 
LOGIN :

Register | Disclaimer

   EN    FR    IT 

 









Legend :    VFR   Marginal VFR   IFR   Intensive IFR   Very Intensive IFR
Visi :
Ceiling :
>= 8 km
>= 3000ft
5 to 8 km
1000 to 3000 ft
1500m to 5 km
500 to 1000 ft
800 to 1500m
200 to 500 ft
< 800m
< 200 ft
Symbols :   Thunderstorms  Fog  Heavy snow  Heavy precipitations  Wind > 20 kt






- Airport Elevation : 369 ft


KVBG - Vandenberg Air Force Base

CURRENT METAR :
  • 240555Z AUTO 03003KT 10SM CLR 12/09 A3009 RMK AO2 SLP193 T01200090 10168 20090 51013 TSNO $

EXPIRED METARs :
  • 240510Z AUTO 00000KT 10SM CLR 11/09 A3010 RMK AO2 SLP196 TSNO $
  • 240455Z AUTO 00000KT 10SM BKN026 10/08 A3009 RMK AO2 SLP193 T01010080 TSNO $
  • 240355Z AUTO 35003KT 10SM CLR 10/07 A3008 RMK AO2 SLP189 T00950071 TSNO $
  • 240255Z AUTO 33005KT 9SM CLR 12/08 A3005 RMK AO2 SLP179 T01180079 52006 TSNO $
  • 240155Z AUTO 30008KT 10SM CLR 15/08 A3005 RMK AO2 SLP179 T01470084 TSNO $

TAF TAF KVBG
Valid from the 23 at 22:00 until the 25 at 04:00 UTC


232215Z 2322/2504 27009KT 9999 SCT030 SCT250 QNH3004INS
BECMG 2402/2403 VRB06KT 9999 FEW015 SCT250 QNH3002INS
BECMG 2406/2407 VRB06KT 9999 OVC015 QNH3001INS
BECMG 2410/2411 VRB06KT 8000 BR OVC009 QNH3003INS
TEMPO 2411/2415 6000 -DZ BR OVC005
BECMG 2415/2416 29006KT 9999 NSW OVC012 QNH3004INS
BECMG 2419/2420 29009KT 9999 BKN020 QNH3003INS
BECMG 2421/2422 30012KT 9999 BKN025 BKN200 QNH3002INS
BECMG 2502/2503 32008KT 9999 SCT015 OVC020 QNH3001INS TX18/2421Z TN11/2413Z LAST NO AMDS AFT 2400 NEXT 2414
KZLA FIR / North America



MET'MAP, your aeronautical weather chart ! - Copyright ORBIFLY December 2007 - Disclaimer

ORBIFLY MET'MAP TEAM :

Programming & Development : Alexandra Zaïnal
Original concept : Baudouin d'Aumeries
Technical & hardware support : Manuel Goepfert
Assistance : Marc-Olivier Méhu




SOURCES & CREDITS :

   NOAA       Earth
Advisory